Terminal Aerodrome Forecast
Issued by NWS

Home | Current Version | Previous Version | Text Only | Print | Product List | Glossary On
Versions: 1 2 3 4 5 6 7 8 9 10 11 12 13 14 15 16 17 18 19 20 21 22 23 24 25 26 27 28 29
000
FTUS46 KLOX 192300
TAFPRB
TAF
KPRB 192335Z 2000/2024 18006KT P6SM BKN035 OVC050
      TEMPO 2000/2004 -SHRA BKN025
     FM200400 VRB03KT P6SM SCT010 BKN035
     FM200600 VRB03KT P6SM BKN120
     FM201300 VRB03KT 1SM BR BKN004
     FM201600 VRB03KT 5SM BR BKN010
     FM202000 31008KT P6SM BKN025=

USA.gov is the U.S. government's official web portal to all federal, state and local government web resources and services.